• Join FlightAware (Why Join?)
  • Login
  • US Flag 
09:01AM EDT


 

Airport Tracker/Info


-or-


 

Live Flight TrackerFlight Track Log ✈ SWA2624 ✈ 29-Apr-2013 ✈ KABQ - KLAS

Flight Track Log - Related Links

Times and Time Zones

All times are in EDT time to prevent confusion due to time zone crossing. See the SWA2624 flight status page for this flight to view local times or setup timezone preferences in your user account.

Time Position Orientation Groundspeed Altitude Reporting Facility
EDT Latitude Longitude Course Direction KTS MPH feet Rate Location/Type
11:29PM 35.0417 -106.5928 121° Southeast 156 180 5,900  Level Albuquerque Center
11:29PM 35.0281 -106.5647 121° Southeast 182 209 7,000 2,040 Climbing Albuquerque Center
11:30PM 35.0081 -106.5833 217° Southwest 189 217 8,200 2,160 Climbing Albuquerque Center
11:30PM 35.0158 -106.6125 288° West 215 247 9,200 2,220 Climbing Albuquerque Center
11:31PM 35.0411 -106.6981 290° West 249 287 11,900 3,240 Climbing Albuquerque Center
11:32PM 35.0736 -106.7997 291° West 313 360 15,900 4,320 Climbing Albuquerque Center
11:33PM 35.1125 -106.9286 290° West 346 398 20,700 3,960 Climbing Albuquerque Center
11:34PM 35.1478 -107.0425 291° West 372 428 24,100 3,300 Climbing Albuquerque Center
11:36PM 35.1903 -107.1833 290° West 398 458 27,500 2,820 Climbing Albuquerque Center
11:37PM 35.2175 -107.3075 285° West 420 483 29,900 2,160 Climbing Albuquerque Center
11:38PM 35.2344 -107.4533 278° West 430 495 32,000 1,620 Climbing Albuquerque Center
11:39PM 35.2550 -107.6297 278° West 448 516 33,300 1,860 Climbing Albuquerque Center
11:40PM 35.2644 -107.7803 274° West 457 526 35,800 2,820 Climbing Albuquerque Center
11:41PM 35.2789 -107.9481 276° West 447 514 39,100 2,040 Climbing Albuquerque Center
11:42PM 35.2919 -108.0861 277° West 433 498 40,000 420 Climbing Albuquerque Center
11:43PM 35.3044 -108.2242 276° West 428 493 40,000  Level Albuquerque Center
11:44PM 35.3164 -108.3861 275° West 426 490 40,000  Level Albuquerque Center
11:45PM 35.3269 -108.5233 275° West 423 487 40,000  Level Albuquerque Center
11:46PM 35.3389 -108.6594 276° West 421 484 40,000  Level Albuquerque Center
11:47PM 35.3517 -108.8167 276° West 416 479 40,000  Level Albuquerque Center
11:48PM 35.3617 -108.9539 275° West 418 481 40,000  Level Albuquerque Center
11:49PM 35.3733 -109.0903 276° West 419 482 40,000  Level Albuquerque Center
11:50PM 35.3844 -109.2478 275° West 417 480 40,000  Level Albuquerque Center
11:51PM 35.3953 -109.3864 276° West 420 483 40,000  Level Albuquerque Center
11:52PM 35.4061 -109.5461 275° West 421 484 40,000  Level Albuquerque Center
11:53PM 35.4153 -109.6853 275° West 424 488 40,000  Level Albuquerque Center
11:54PM 35.4239 -109.8222 274° West 423 487 40,000  Level Albuquerque Center
11:55PM 35.4347 -109.9814 275° West 421 484 40,000  Level Albuquerque Center
11:56PM 35.4419 -110.1206 274° West 424 488 40,000  Level Albuquerque Center
11:57PM 35.4508 -110.2594 275° West 426 490 40,000 -540 Level Albuquerque Center
11:58PM 35.4611 -110.4222 274° West 429 494 39,000 -1,020 Descending Albuquerque Center
11:59PM 35.4700 -110.5622 274° West 429 494 38,000 -960 Descending Albuquerque Center
12:00AM 35.4786 -110.7028 274° West 431 496 37,100 -960 Descending Albuquerque Center
12:01AM 35.4900 -110.8692 275° West 436 502 36,100 -1,020 Descending Albuquerque Center
12:02AM 35.4978 -111.0122 274° West 438 504 35,100 -1,020 Descending Albuquerque Center
12:03AM 35.5089 -111.1819 275° West 443 510 34,100 -1,020 Descending Albuquerque Center
12:04AM 35.5172 -111.3267 274° West 445 512 33,100 -1,740 Descending Albuquerque Center
12:05AM 35.5250 -111.4600 274° West 452 520 30,600 -1,560 Descending Albuquerque Center
12:06AM 35.5356 -111.6383 274° West 444 511 30,000 -300 Descending Albuquerque Center
12:07AM 35.5428 -111.7856 273° West 436 502 30,000  Level Albuquerque Center
12:08AM 35.5508 -111.9344 274° West 439 505 30,000  Level Albuquerque Center
12:09AM 35.5592 -112.0850 274° West 443 510 30,000  Level Albuquerque Center
12:10AM 35.5656 -112.2050 274° West 443 510 30,000  Level Los Angeles Center
12:11AM 35.5731 -112.3547 274° West 443 510 30,000  Level Los Angeles Center
12:12AM 35.5817 -112.5317 273° West 439 505 30,000  Level Los Angeles Center
12:13AM 35.5872 -112.6650 273° West 435 501 30,000  Level Los Angeles Center
12:14AM 35.5950 -112.8114 274° West 431 496 30,000  Level Los Angeles Center
12:15AM 35.6019 -112.9772 273° West 441 507 30,000  Level Los Angeles Center
12:16AM 35.6075 -113.1258 273° West 437 503 30,000  Level Los Angeles Center
12:17AM 35.6142 -113.2733 273° West 434 499 30,000 -780 Level Los Angeles Center
12:18AM 35.6206 -113.4386 273° West 435 501 28,500 -2,100 Descending Los Angeles Center
12:19AM 35.6286 -113.5808 274° West 427 491 25,800 -2,640 Descending Los Angeles Center
12:20AM 35.6492 -113.7156 281° West 409 471 23,100 -2,640 Descending Los Angeles Center
12:21AM 35.6686 -113.8453 280° West 394 453 20,400 -2,040 Descending Los Angeles Center
12:22AM 35.6847 -113.9678 279° West 371 427 19,000 -1,740 Descending Los Angeles Center
12:23AM 35.7011 -114.0861 280° West 355 409 16,900 -2,340 Descending Los Angeles Center
12:24AM 35.7178 -114.1881 281° West 343 395 14,900 -2,460 Descending Los Angeles Center
12:24AM 35.7192 -114.2150 274° West 341 392 14,400 -2,100 Descending Los Angeles Center
12:25AM 35.7311 -114.2844 282° West 338 389 13,200 -1,620 Descending Los Angeles Center
12:25AM 35.7428 -114.3225 291° West 328 377 12,800 -900 Descending Los Angeles Center
12:26AM 35.7689 -114.3564 314° West 338 389 12,500 -780 Descending Los Angeles Center
12:26AM 35.8022 -114.4142 305° West 340 391 12,000 -840 Descending Los Angeles Center
12:27AM 35.8381 -114.4711 308° West 338 389 11,500 -840 Descending Los Angeles Center
12:27AM 35.8569 -114.5081 302° West 338 389 11,200 -840 Descending Los Angeles Center
12:28AM 35.8969 -114.5708 308° West 337 388 10,600 -840 Descending Los Angeles Center
12:28AM 35.9128 -114.5986 305° West 334 384 10,400 -1,320 Descending Los Angeles Center
12:29AM 35.9556 -114.6683 307° West 303 349 9,200 -1,500 Descending Los Angeles Center
12:29AM 35.9614 -114.6792 304° West 301 346 8,900 -1,140 Descending Los Angeles Center
12:30AM 35.9911 -114.7308 305° West 293 337 8,300 -1,080 Descending Los Angeles Center
12:30AM 36.0181 -114.7717 309° West 284 327 7,800 -900 Descending Los Angeles Center
12:31AM 36.0347 -114.8014 305° West 269 310 7,400 -900 Descending Los Angeles Center
12:31AM 36.0592 -114.8408 307° West 265 305 6,900 -1,020 Descending Los Angeles Center
12:32AM 36.0700 -114.8642 300° West 237 273 6,500 -1,200 Descending Los Angeles Center
12:32AM 36.0742 -114.9097 276° West 237 273 5,700 -1,200 Descending Los Angeles Center
12:33AM 36.0758 -114.9394 274° West 202 232 5,300 -1,260 Descending Los Angeles Center
12:34AM 36.0733 -114.9736 265° West 204 235 4,400 -960 Descending Los Angeles Center
12:35AM 36.0744 -115.0303 271° West 183 211 3,500 -720 Descending Los Angeles Center
12:36AM 36.0742 -115.0800 270° West 147 169 2,800 -660 Descending Los Angeles Center
12:37AM 36.0742 -115.1189 270° West 126 145 2,200 -600 Descending Los Angeles Center
12:39AM 36.0667 -115.1500 270° West  Level FlightAware Approximate